Burzaco, Argentina
Current Conditions -  °F | °C
As of 6:00 AM on Monday 24 Nov 2014 (Local Time) from SAEZ Reporting Station
Broken Clouds Broken Clouds  
Wind Chill: 72°   Ceiling: 10000
Heat Index: 72°   Visibility: 6mi
Dew Point: 55°   Wind: 7mph
Humidity: 57%   Direction: 340°NNW
Pressure: 29.71"   Gusts: NA
Location:  34.82°S, 58.4°W
Report Text: SAEZ 240900Z 34006KT 320V030 9999 SCT036 BKN100 22/13 Q1006 RMK LGHT OBS TO S
Loading
Personal Weather Stations






























Interactive Weather Map New forecast layout! Learn more

10-Day Weather Forecast

Advertisements
Track Severe Weather on mobile